sensor_id;sensor_type;location;lat;lon;timestamp;P1;durP1;ratioP1;P2;durP2;ratioP2
61702;SDS011;47622;47.726;3.298;2023-04-28T00:00:49;1.95;;;1.80;;
61702;SDS011;47622;47.726;3.298;2023-04-28T00:03:15;4.10;;;2.40;;
61702;SDS011;47622;47.726;3.298;2023-04-28T00:05:41;2.03;;;1.83;;
61702;SDS011;47622;47.726;3.298;2023-04-28T00:08:07;2.17;;;1.98;;
61702;SDS011;47622;47.726;3.298;2023-04-28T00:10:33;2.55;;;2.10;;
61702;SDS011;47622;47.726;3.298;2023-04-28T00:12:59;2.78;;;2.30;;
61702;SDS011;47622;47.726;3.298;2023-04-28T00:15:25;3.38;;;1.92;;
61702;SDS011;47622;47.726;3.298;2023-04-28T00:17:50;2.10;;;1.90;;
61702;SDS011;47622;47.726;3.298;2023-04-28T00:20:17;2.13;;;1.92;;
61702;SDS011;47622;47.726;3.298;2023-04-28T00:22:43;2.20;;;2.00;;
61702;SDS011;47622;47.726;3.298;2023-04-28T00:25:08;3.92;;;2.30;;
61702;SDS011;47622;47.726;3.298;2023-04-28T00:27:34;2.28;;;2.08;;
61702;SDS011;47622;47.726;3.298;2023-04-28T00:30:01;2.60;;;2.30;;
61702;SDS011;47622;47.726;3.298;2023-04-28T00:32:27;2.42;;;2.08;;
61702;SDS011;47622;47.726;3.298;2023-04-28T00:34:53;2.25;;;2.00;;
61702;SDS011;47622;47.726;3.298;2023-04-28T00:37:21;2.20;;;2.00;;
61702;SDS011;47622;47.726;3.298;2023-04-28T00:39:47;3.33;;;2.13;;
61702;SDS011;47622;47.726;3.298;2023-04-28T00:42:16;3.22;;;2.53;;
61702;SDS011;47622;47.726;3.298;2023-04-28T00:44:41;2.65;;;2.10;;
61702;SDS011;47622;47.726;3.298;2023-04-28T00:47:07;2.20;;;2.00;;
61702;SDS011;47622;47.726;3.298;2023-04-28T00:49:34;4.10;;;2.35;;
61702;SDS011;47622;47.726;3.298;2023-04-28T00:52:03;2.60;;;2.35;;
61702;SDS011;47622;47.726;3.298;2023-04-28T00:54:31;3.33;;;2.67;;
61702;SDS011;47622;47.726;3.298;2023-04-28T00:56:57;3.15;;;2.30;;
61702;SDS011;47622;47.726;3.298;2023-04-28T00:59:23;3.08;;;2.17;;
61702;SDS011;47622;47.726;3.298;2023-04-28T01:01:49;2.90;;;2.35;;
61702;SDS011;47622;47.726;3.298;2023-04-28T01:04:15;3.00;;;2.22;;
61702;SDS011;47622;47.726;3.298;2023-04-28T01:06:44;3.17;;;2.53;;
61702;SDS011;47622;47.726;3.298;2023-04-28T01:09:11;3.17;;;2.50;;
61702;SDS011;47622;47.726;3.298;2023-04-28T01:11:37;3.33;;;2.40;;
61702;SDS011;47622;47.726;3.298;2023-04-28T01:14:02;2.33;;;2.10;;
61702;SDS011;47622;47.726;3.298;2023-04-28T01:16:28;2.90;;;2.35;;
61702;SDS011;47622;47.726;3.298;2023-04-28T01:18:56;2.55;;;2.25;;
61702;SDS011;47622;47.726;3.298;2023-04-28T01:21:26;2.83;;;2.40;;
61702;SDS011;47622;47.726;3.298;2023-04-28T01:23:54;2.60;;;2.08;;
61702;SDS011;47622;47.726;3.298;2023-04-28T01:26:22;2.35;;;2.15;;
61702;SDS011;47622;47.726;3.298;2023-04-28T01:28:48;3.55;;;2.60;;
61702;SDS011;47622;47.726;3.298;2023-04-28T01:31:13;3.65;;;2.40;;
61702;SDS011;47622;47.726;3.298;2023-04-28T01:33:39;3.75;;;2.53;;
61702;SDS011;47622;47.726;3.298;2023-04-28T01:36:05;2.83;;;2.35;;
61702;SDS011;47622;47.726;3.298;2023-04-28T01:38:31;2.75;;;2.13;;
61702;SDS011;47622;47.726;3.298;2023-04-28T01:40:57;3.10;;;2.45;;
61702;SDS011;47622;47.726;3.298;2023-04-28T01:43:24;4.68;;;2.42;;
61702;SDS011;47622;47.726;3.298;2023-04-28T01:45:50;2.65;;;2.30;;
61702;SDS011;47622;47.726;3.298;2023-04-28T01:48:16;2.65;;;2.45;;
61702;SDS011;47622;47.726;3.298;2023-04-28T01:50:42;3.50;;;2.42;;
61702;SDS011;47622;47.726;3.298;2023-04-28T01:53:07;2.28;;;2.08;;
61702;SDS011;47622;47.726;3.298;2023-04-28T01:55:33;5.75;;;2.70;;
61702;SDS011;47622;47.726;3.298;2023-04-28T01:57:59;4.25;;;2.38;;
61702;SDS011;47622;47.726;3.298;2023-04-28T02:00:25;3.17;;;2.60;;
61702;SDS011;47622;47.726;3.298;2023-04-28T02:02:51;3.00;;;2.70;;
61702;SDS011;47622;47.726;3.298;2023-04-28T02:05:17;2.35;;;2.15;;
61702;SDS011;47622;47.726;3.298;2023-04-28T02:07:43;2.85;;;2.47;;
61702;SDS011;47622;47.726;3.298;2023-04-28T02:10:09;3.03;;;2.72;;
61702;SDS011;47622;47.726;3.298;2023-04-28T02:12:35;3.13;;;2.80;;
61702;SDS011;47622;47.726;3.298;2023-04-28T02:15:02;2.65;;;2.45;;
61702;SDS011;47622;47.726;3.298;2023-04-28T02:17:31;3.85;;;2.65;;
61702;SDS011;47622;47.726;3.298;2023-04-28T02:19:57;3.75;;;2.60;;
61702;SDS011;47622;47.726;3.298;2023-04-28T02:22:23;4.75;;;2.70;;
61702;SDS011;47622;47.726;3.298;2023-04-28T02:24:49;3.90;;;2.92;;
61702;SDS011;47622;47.726;3.298;2023-04-28T02:27:15;3.20;;;2.90;;
61702;SDS011;47622;47.726;3.298;2023-04-28T02:29:41;3.38;;;2.53;;
61702;SDS011;47622;47.726;3.298;2023-04-28T02:32:07;4.13;;;2.50;;
61702;SDS011;47622;47.726;3.298;2023-04-28T02:34:33;2.95;;;2.50;;
61702;SDS011;47622;47.726;3.298;2023-04-28T02:36:59;5.50;;;3.38;;
61702;SDS011;47622;47.726;3.298;2023-04-28T02:39:24;3.58;;;2.63;;
61702;SDS011;47622;47.726;3.298;2023-04-28T02:41:54;3.63;;;2.83;;
61702;SDS011;47622;47.726;3.298;2023-04-28T02:44:20;3.58;;;2.97;;
61702;SDS011;47622;47.726;3.298;2023-04-28T02:46:46;3.80;;;3.40;;
61702;SDS011;47622;47.726;3.298;2023-04-28T02:49:12;8.80;;;4.40;;
61702;SDS011;47622;47.726;3.298;2023-04-28T02:51:38;5.53;;;4.10;;
61702;SDS011;47622;47.726;3.298;2023-04-28T02:54:04;6.15;;;3.60;;
61702;SDS011;47622;47.726;3.298;2023-04-28T02:56:32;6.15;;;3.83;;
61702;SDS011;47622;47.726;3.298;2023-04-28T02:58:58;4.95;;;3.80;;
61702;SDS011;47622;47.726;3.298;2023-04-28T03:01:24;5.43;;;4.10;;
61702;SDS011;47622;47.726;3.298;2023-04-28T03:03:50;6.32;;;4.88;;
61702;SDS011;47622;47.726;3.298;2023-04-28T03:06:16;7.82;;;4.82;;
61702;SDS011;47622;47.726;3.298;2023-04-28T03:08:42;6.68;;;4.90;;
61702;SDS011;47622;47.726;3.298;2023-04-28T03:11:08;8.48;;;4.80;;
61702;SDS011;47622;47.726;3.298;2023-04-28T03:13:35;9.77;;;5.53;;
61702;SDS011;47622;47.726;3.298;2023-04-28T03:16:01;6.15;;;4.55;;
61702;SDS011;47622;47.726;3.298;2023-04-28T03:18:27;9.35;;;5.57;;
61702;SDS011;47622;47.726;3.298;2023-04-28T03:20:53;7.97;;;5.40;;
61702;SDS011;47622;47.726;3.298;2023-04-28T03:23:18;6.13;;;5.15;;
61702;SDS011;47622;47.726;3.298;2023-04-28T03:25:44;8.23;;;4.75;;
61702;SDS011;47622;47.726;3.298;2023-04-28T03:28:10;12.02;;;6.10;;
61702;SDS011;47622;47.726;3.298;2023-04-28T03:30:36;7.13;;;5.75;;
61702;SDS011;47622;47.726;3.298;2023-04-28T03:33:01;8.70;;;6.10;;
61702;SDS011;47622;47.726;3.298;2023-04-28T03:35:27;8.32;;;5.75;;
61702;SDS011;47622;47.726;3.298;2023-04-28T03:37:53;7.40;;;5.68;;
61702;SDS011;47622;47.726;3.298;2023-04-28T03:40:19;7.68;;;5.00;;
61702;SDS011;47622;47.726;3.298;2023-04-28T03:42:44;12.32;;;6.32;;
61702;SDS011;47622;47.726;3.298;2023-04-28T03:45:11;8.18;;;5.68;;
61702;SDS011;47622;47.726;3.298;2023-04-28T03:47:37;6.95;;;5.40;;
61702;SDS011;47622;47.726;3.298;2023-04-28T03:50:03;6.78;;;4.97;;
61702;SDS011;47622;47.726;3.298;2023-04-28T03:52:29;7.88;;;5.82;;
61702;SDS011;47622;47.726;3.298;2023-04-28T03:54:55;8.82;;;5.68;;
61702;SDS011;47622;47.726;3.298;2023-04-28T03:57:22;6.75;;;5.57;;
61702;SDS011;47622;47.726;3.298;2023-04-28T03:59:48;8.10;;;5.53;;
61702;SDS011;47622;47.726;3.298;2023-04-28T04:02:14;6.80;;;5.43;;
61702;SDS011;47622;47.726;3.298;2023-04-28T04:04:39;7.20;;;5.20;;
61702;SDS011;47622;47.726;3.298;2023-04-28T04:07:06;6.22;;;4.60;;
61702;SDS011;47622;47.726;3.298;2023-04-28T04:09:33;6.82;;;4.82;;
61702;SDS011;47622;47.726;3.298;2023-04-28T04:11:59;9.48;;;5.60;;
61702;SDS011;47622;47.726;3.298;2023-04-28T04:14:25;7.53;;;5.03;;
61702;SDS011;47622;47.726;3.298;2023-04-28T04:16:51;5.68;;;5.00;;
61702;SDS011;47622;47.726;3.298;2023-04-28T04:19:16;6.28;;;4.75;;
61702;SDS011;47622;47.726;3.298;2023-04-28T04:21:42;7.35;;;5.60;;
61702;SDS011;47622;47.726;3.298;2023-04-28T04:24:07;7.20;;;4.32;;
61702;SDS011;47622;47.726;3.298;2023-04-28T04:26:33;7.38;;;5.82;;
61702;SDS011;47622;47.726;3.298;2023-04-28T04:28:59;4.80;;;4.07;;
61702;SDS011;47622;47.726;3.298;2023-04-28T04:31:25;7.35;;;4.72;;
61702;SDS011;47622;47.726;3.298;2023-04-28T04:33:50;4.93;;;4.35;;
61702;SDS011;47622;47.726;3.298;2023-04-28T04:36:16;6.50;;;4.60;;
61702;SDS011;47622;47.726;3.298;2023-04-28T04:38:42;6.25;;;4.40;;
61702;SDS011;47622;47.726;3.298;2023-04-28T04:41:08;5.07;;;4.35;;
61702;SDS011;47622;47.726;3.298;2023-04-28T04:43:33;6.38;;;4.85;;
61702;SDS011;47622;47.726;3.298;2023-04-28T04:45:59;6.70;;;4.32;;
61702;SDS011;47622;47.726;3.298;2023-04-28T04:48:25;7.40;;;4.72;;
61702;SDS011;47622;47.726;3.298;2023-04-28T04:50:50;6.90;;;5.15;;
61702;SDS011;47622;47.726;3.298;2023-04-28T04:53:17;5.70;;;4.82;;
61702;SDS011;47622;47.726;3.298;2023-04-28T04:55:43;5.82;;;4.50;;
61702;SDS011;47622;47.726;3.298;2023-04-28T04:58:08;8.50;;;5.38;;
61702;SDS011;47622;47.726;3.298;2023-04-28T05:00:34;6.35;;;4.03;;
61702;SDS011;47622;47.726;3.298;2023-04-28T05:03:01;5.85;;;4.60;;
61702;SDS011;47622;47.726;3.298;2023-04-28T05:05:28;6.90;;;4.43;;
61702;SDS011;47622;47.726;3.298;2023-04-28T05:07:53;5.80;;;4.30;;
61702;SDS011;47622;47.726;3.298;2023-04-28T05:10:19;6.10;;;4.78;;
61702;SDS011;47622;47.726;3.298;2023-04-28T05:12:45;5.20;;;4.43;;
61702;SDS011;47622;47.726;3.298;2023-04-28T05:15:10;6.28;;;4.40;;
61702;SDS011;47622;47.726;3.298;2023-04-28T05:17:36;5.70;;;4.50;;
61702;SDS011;47622;47.726;3.298;2023-04-28T05:20:02;6.35;;;4.80;;
61702;SDS011;47622;47.726;3.298;2023-04-28T05:22:28;6.60;;;4.07;;
61702;SDS011;47622;47.726;3.298;2023-04-28T05:24:55;8.35;;;4.53;;
61702;SDS011;47622;47.726;3.298;2023-04-28T05:27:21;5.53;;;4.57;;
61702;SDS011;47622;47.726;3.298;2023-04-28T05:29:46;5.05;;;4.15;;
61702;SDS011;47622;47.726;3.298;2023-04-28T05:32:12;6.38;;;4.70;;
61702;SDS011;47622;47.726;3.298;2023-04-28T05:34:38;7.72;;;4.50;;
61702;SDS011;47622;47.726;3.298;2023-04-28T05:37:03;6.47;;;4.95;;
61702;SDS011;47622;47.726;3.298;2023-04-28T05:39:29;5.75;;;4.68;;
61702;SDS011;47622;47.726;3.298;2023-04-28T05:41:55;5.80;;;4.47;;
61702;SDS011;47622;47.726;3.298;2023-04-28T05:44:22;6.82;;;4.78;;
61702;SDS011;47622;47.726;3.298;2023-04-28T05:46:48;5.03;;;4.43;;
61702;SDS011;47622;47.726;3.298;2023-04-28T05:49:14;6.90;;;4.32;;
61702;SDS011;47622;47.726;3.298;2023-04-28T05:51:40;5.70;;;4.38;;
61702;SDS011;47622;47.726;3.298;2023-04-28T05:54:06;5.80;;;3.75;;
61702;SDS011;47622;47.726;3.298;2023-04-28T05:56:32;4.55;;;3.67;;
61702;SDS011;47622;47.726;3.298;2023-04-28T05:58:58;7.22;;;4.10;;
61702;SDS011;47622;47.726;3.298;2023-04-28T06:01:28;5.70;;;4.78;;
61702;SDS011;47622;47.726;3.298;2023-04-28T06:03:54;6.25;;;3.92;;
61702;SDS011;47622;47.726;3.298;2023-04-28T06:06:22;5.43;;;3.85;;
61702;SDS011;47622;47.726;3.298;2023-04-28T06:08:48;5.82;;;4.55;;
61702;SDS011;47622;47.726;3.298;2023-04-28T06:11:13;4.53;;;3.90;;
61702;SDS011;47622;47.726;3.298;2023-04-28T06:13:39;5.57;;;4.25;;
61702;SDS011;47622;47.726;3.298;2023-04-28T06:16:05;4.50;;;3.97;;
61702;SDS011;47622;47.726;3.298;2023-04-28T06:18:31;5.22;;;3.80;;
61702;SDS011;47622;47.726;3.298;2023-04-28T06:20:57;4.70;;;4.20;;
61702;SDS011;47622;47.726;3.298;2023-04-28T06:23:23;4.60;;;4.18;;
61702;SDS011;47622;47.726;3.298;2023-04-28T06:25:49;4.75;;;3.95;;
61702;SDS011;47622;47.726;3.298;2023-04-28T06:28:15;5.03;;;4.00;;
61702;SDS011;47622;47.726;3.298;2023-04-28T06:30:41;4.60;;;4.10;;
61702;SDS011;47622;47.726;3.298;2023-04-28T06:33:07;7.85;;;4.72;;
61702;SDS011;47622;47.726;3.298;2023-04-28T06:35:33;5.60;;;4.13;;
61702;SDS011;47622;47.726;3.298;2023-04-28T06:38:01;7.05;;;4.25;;
61702;SDS011;47622;47.726;3.298;2023-04-28T06:40:28;3.78;;;3.38;;
61702;SDS011;47622;47.726;3.298;2023-04-28T06:42:54;5.50;;;3.90;;
61702;SDS011;47622;47.726;3.298;2023-04-28T06:45:20;4.78;;;4.25;;
61702;SDS011;47622;47.726;3.298;2023-04-28T06:47:46;7.60;;;4.50;;
61702;SDS011;47622;47.726;3.298;2023-04-28T06:50:12;4.25;;;3.85;;
61702;SDS011;47622;47.726;3.298;2023-04-28T06:52:38;6.32;;;4.13;;
61702;SDS011;47622;47.726;3.298;2023-04-28T06:55:06;5.40;;;3.60;;
61702;SDS011;47622;47.726;3.298;2023-04-28T06:57:33;4.78;;;3.75;;
61702;SDS011;47622;47.726;3.298;2023-04-28T06:59:59;5.68;;;3.70;;
61702;SDS011;47622;47.726;3.298;2023-04-28T07:02:25;4.22;;;3.45;;
61702;SDS011;47622;47.726;3.298;2023-04-28T07:04:51;4.55;;;3.22;;
61702;SDS011;47622;47.726;3.298;2023-04-28T07:07:17;4.85;;;3.58;;
61702;SDS011;47622;47.726;3.298;2023-04-28T07:09:46;3.80;;;3.20;;
61702;SDS011;47622;47.726;3.298;2023-04-28T07:12:11;3.97;;;3.55;;
61702;SDS011;47622;47.726;3.298;2023-04-28T07:14:37;3.95;;;3.25;;
61702;SDS011;47622;47.726;3.298;2023-04-28T07:17:03;3.38;;;3.03;;
61702;SDS011;47622;47.726;3.298;2023-04-28T07:19:29;4.53;;;3.40;;
61702;SDS011;47622;47.726;3.298;2023-04-28T07:21:54;3.65;;;2.78;;
61702;SDS011;47622;47.726;3.298;2023-04-28T07:24:20;3.70;;;2.50;;
61702;SDS011;47622;47.726;3.298;2023-04-28T07:26:47;3.13;;;2.47;;
61702;SDS011;47622;47.726;3.298;2023-04-28T07:29:13;3.58;;;3.22;;
61702;SDS011;47622;47.726;3.298;2023-04-28T07:31:40;3.50;;;2.42;;
61702;SDS011;47622;47.726;3.298;2023-04-28T07:34:06;2.75;;;2.38;;
61702;SDS011;47622;47.726;3.298;2023-04-28T07:36:33;5.95;;;2.90;;
61702;SDS011;47622;47.726;3.298;2023-04-28T07:39:00;4.78;;;2.33;;
61702;SDS011;47622;47.726;3.298;2023-04-28T07:41:26;3.65;;;2.33;;
61702;SDS011;47622;47.726;3.298;2023-04-28T07:43:53;3.42;;;2.50;;
61702;SDS011;47622;47.726;3.298;2023-04-28T07:46:19;4.03;;;2.10;;
61702;SDS011;47622;47.726;3.298;2023-04-28T07:48:47;4.88;;;2.20;;
61702;SDS011;47622;47.726;3.298;2023-04-28T07:51:13;5.35;;;2.72;;
61702;SDS011;47622;47.726;3.298;2023-04-28T07:53:39;2.63;;;2.20;;
61702;SDS011;47622;47.726;3.298;2023-04-28T07:56:05;4.70;;;1.98;;
61702;SDS011;47622;47.726;3.298;2023-04-28T07:58:31;2.35;;;2.03;;
61702;SDS011;47622;47.726;3.298;2023-04-28T08:00:57;5.03;;;2.42;;
61702;SDS011;47622;47.726;3.298;2023-04-28T08:03:23;2.88;;;2.20;;
61702;SDS011;47622;47.726;3.298;2023-04-28T08:05:48;3.30;;;2.08;;
61702;SDS011;47622;47.726;3.298;2023-04-28T08:08:14;4.15;;;2.50;;
61702;SDS011;47622;47.726;3.298;2023-04-28T08:10:40;2.17;;;1.83;;
61702;SDS011;47622;47.726;3.298;2023-04-28T08:13:07;5.05;;;2.28;;
61702;SDS011;47622;47.726;3.298;2023-04-28T08:15:33;2.72;;;2.05;;
61702;SDS011;47622;47.726;3.298;2023-04-28T08:17:59;2.25;;;1.85;;
61702;SDS011;47622;47.726;3.298;2023-04-28T08:20:25;3.67;;;1.77;;
61702;SDS011;47622;47.726;3.298;2023-04-28T08:22:51;4.65;;;1.83;;
61702;SDS011;47622;47.726;3.298;2023-04-28T08:25:17;2.35;;;1.80;;
61702;SDS011;47622;47.726;3.298;2023-04-28T08:27:42;3.47;;;1.83;;
61702;SDS011;47622;47.726;3.298;2023-04-28T08:30:08;1.65;;;1.48;;
61702;SDS011;47622;47.726;3.298;2023-04-28T08:32:34;1.40;;;1.30;;
61702;SDS011;47622;47.726;3.298;2023-04-28T08:35:00;2.42;;;1.50;;
61702;SDS011;47622;47.726;3.298;2023-04-28T08:37:26;2.05;;;1.40;;
61702;SDS011;47622;47.726;3.298;2023-04-28T08:39:52;1.90;;;1.58;;
61702;SDS011;47622;47.726;3.298;2023-04-28T08:42:27;2.70;;;1.42;;
61702;SDS011;47622;47.726;3.298;2023-04-28T08:44:55;1.63;;;1.42;;
61702;SDS011;47622;47.726;3.298;2023-04-28T08:47:23;1.90;;;1.80;;
61702;SDS011;47622;47.726;3.298;2023-04-28T08:50:05;1.85;;;1.73;;
61702;SDS011;47622;47.726;3.298;2023-04-28T08:52:33;2.90;;;1.20;;
61702;SDS011;47622;47.726;3.298;2023-04-28T08:55:00;6.10;;;1.58;;
61702;SDS011;47622;47.726;3.298;2023-04-28T08:57:37;2.03;;;1.63;;
61702;SDS011;47622;47.726;3.298;2023-04-28T09:00:04;1.80;;;1.52;;
61702;SDS011;47622;47.726;3.298;2023-04-28T09:02:30;3.05;;;1.50;;
61702;SDS011;47622;47.726;3.298;2023-04-28T09:04:57;2.33;;;1.52;;
61702;SDS011;47622;47.726;3.298;2023-04-28T09:07:22;1.50;;;1.35;;
61702;SDS011;47622;47.726;3.298;2023-04-28T09:09:48;3.30;;;1.42;;
61702;SDS011;47622;47.726;3.298;2023-04-28T09:12:14;1.50;;;1.23;;
61702;SDS011;47622;47.726;3.298;2023-04-28T09:14:40;2.15;;;1.20;;
61702;SDS011;47622;47.726;3.298;2023-04-28T09:17:12;2.72;;;1.40;;
61702;SDS011;47622;47.726;3.298;2023-04-28T09:19:39;3.88;;;1.58;;
61702;SDS011;47622;47.726;3.298;2023-04-28T09:22:08;1.65;;;1.50;;
61702;SDS011;47622;47.726;3.298;2023-04-28T09:24:35;1.60;;;1.45;;
61702;SDS011;47622;47.726;3.298;2023-04-28T09:27:07;1.90;;;1.50;;
61702;SDS011;47622;47.726;3.298;2023-04-28T09:29:36;2.65;;;1.77;;
61702;SDS011;47622;47.726;3.298;2023-04-28T09:34:45;2.35;;;1.60;;
61702;SDS011;47622;47.726;3.298;2023-04-28T09:37:21;2.03;;;1.40;;
61702;SDS011;47622;47.726;3.298;2023-04-28T09:39:53;1.67;;;1.45;;
61702;SDS011;47622;47.726;3.298;2023-04-28T09:47:34;3.42;;;1.60;;
61702;SDS011;47622;47.726;3.298;2023-04-28T09:50:03;3.30;;;1.40;;
61702;SDS011;47622;47.726;3.298;2023-04-28T09:52:32;2.03;;;1.45;;
61702;SDS011;47622;47.726;3.298;2023-04-28T09:54:59;5.93;;;1.30;;
61702;SDS011;47622;47.726;3.298;2023-04-28T09:57:29;3.63;;;1.40;;
61702;SDS011;47622;47.726;3.298;2023-04-28T09:59:59;2.30;;;1.37;;
61702;SDS011;47622;47.726;3.298;2023-04-28T10:02:25;4.25;;;1.30;;
61702;SDS011;47622;47.726;3.298;2023-04-28T10:04:52;2.25;;;1.50;;
61702;SDS011;47622;47.726;3.298;2023-04-28T10:07:23;2.78;;;1.60;;
61702;SDS011;47622;47.726;3.298;2023-04-28T10:09:49;4.72;;;1.92;;
61702;SDS011;47622;47.726;3.298;2023-04-28T10:12:19;2.17;;;1.60;;
61702;SDS011;47622;47.726;3.298;2023-04-28T10:14:46;3.00;;;1.50;;
61702;SDS011;47622;47.726;3.298;2023-04-28T10:17:14;2.80;;;1.45;;
61702;SDS011;47622;47.726;3.298;2023-04-28T10:19:42;2.30;;;1.20;;
61702;SDS011;47622;47.726;3.298;2023-04-28T10:22:23;4.07;;;1.50;;
61702;SDS011;47622;47.726;3.298;2023-04-28T10:27:42;3.15;;;1.40;;
61702;SDS011;47622;47.726;3.298;2023-04-28T10:30:15;2.00;;;1.30;;
61702;SDS011;47622;47.726;3.298;2023-04-28T10:32:43;3.85;;;1.60;;
61702;SDS011;47622;47.726;3.298;2023-04-28T10:40:36;1.20;;;1.10;;
61702;SDS011;47622;47.726;3.298;2023-04-28T10:46:18;4.13;;;1.33;;
61702;SDS011;47622;47.726;3.298;2023-04-28T10:56:10;1.88;;;1.55;;
61702;SDS011;47622;47.726;3.298;2023-04-28T10:58:36;2.17;;;1.50;;
61702;SDS011;47622;47.726;3.298;2023-04-28T11:03:51;2.55;;;1.50;;
61702;SDS011;47622;47.726;3.298;2023-04-28T11:06:37;1.70;;;1.30;;
61702;SDS011;47622;47.726;3.298;2023-04-28T11:16:52;2.65;;;1.65;;
61702;SDS011;47622;47.726;3.298;2023-04-28T11:19:23;2.78;;;1.40;;
61702;SDS011;47622;47.726;3.298;2023-04-28T11:21:50;2.28;;;1.55;;
61702;SDS011;47622;47.726;3.298;2023-04-28T11:24:22;2.45;;;1.48;;
61702;SDS011;47622;47.726;3.298;2023-04-28T11:26:53;1.60;;;1.50;;
61702;SDS011;47622;47.726;3.298;2023-04-28T11:29:38;2.83;;;1.70;;
61702;SDS011;47622;47.726;3.298;2023-04-28T11:32:05;1.48;;;1.38;;
61702;SDS011;47622;47.726;3.298;2023-04-28T11:34:32;2.10;;;1.50;;
61702;SDS011;47622;47.726;3.298;2023-04-28T11:36:59;1.88;;;1.50;;
61702;SDS011;47622;47.726;3.298;2023-04-28T11:39:34;3.67;;;1.60;;
61702;SDS011;47622;47.726;3.298;2023-04-28T11:42:09;2.10;;;1.52;;
61702;SDS011;47622;47.726;3.298;2023-04-28T11:44:35;1.70;;;1.60;;
61702;SDS011;47622;47.726;3.298;2023-04-28T11:47:03;1.40;;;1.30;;
61702;SDS011;47622;47.726;3.298;2023-04-28T11:49:30;1.58;;;1.48;;
61702;SDS011;47622;47.726;3.298;2023-04-28T11:52:16;2.83;;;1.70;;
61702;SDS011;47622;47.726;3.298;2023-04-28T11:54:42;1.63;;;1.52;;
61702;SDS011;47622;47.726;3.298;2023-04-28T11:57:17;1.98;;;1.50;;
61702;SDS011;47622;47.726;3.298;2023-04-28T11:59:44;2.00;;;1.60;;
61702;SDS011;47622;47.726;3.298;2023-04-28T12:02:10;2.35;;;1.92;;
61702;SDS011;47622;47.726;3.298;2023-04-28T12:04:37;1.63;;;1.52;;
61702;SDS011;47622;47.726;3.298;2023-04-28T12:07:13;1.58;;;1.20;;
61702;SDS011;47622;47.726;3.298;2023-04-28T12:09:40;1.65;;;1.20;;
61702;SDS011;47622;47.726;3.298;2023-04-28T12:12:08;2.05;;;1.10;;
61702;SDS011;47622;47.726;3.298;2023-04-28T12:14:55;1.52;;;1.20;;
61702;SDS011;47622;47.726;3.298;2023-04-28T12:17:26;1.45;;;1.10;;
61702;SDS011;47622;47.726;3.298;2023-04-28T12:19:54;2.13;;;1.10;;
61702;SDS011;47622;47.726;3.298;2023-04-28T12:22:20;1.95;;;1.30;;
61702;SDS011;47622;47.726;3.298;2023-04-28T12:25:01;1.40;;;1.30;;
61702;SDS011;47622;47.726;3.298;2023-04-28T12:27:31;1.05;;;0.95;;
61702;SDS011;47622;47.726;3.298;2023-04-28T12:29:58;1.95;;;1.10;;
61702;SDS011;47622;47.726;3.298;2023-04-28T12:32:37;1.88;;;1.10;;
61702;SDS011;47622;47.726;3.298;2023-04-28T12:35:09;1.25;;;1.10;;
61702;SDS011;47622;47.726;3.298;2023-04-28T12:37:35;2.13;;;1.30;;
61702;SDS011;47622;47.726;3.298;2023-04-28T12:40:03;1.65;;;1.10;;
61702;SDS011;47622;47.726;3.298;2023-04-28T12:42:30;1.20;;;1.10;;
61702;SDS011;47622;47.726;3.298;2023-04-28T12:44:56;5.57;;;1.40;;
61702;SDS011;47622;47.726;3.298;2023-04-28T12:47:23;1.45;;;1.10;;
61702;SDS011;47622;47.726;3.298;2023-04-28T12:49:49;1.40;;;1.17;;
61702;SDS011;47622;47.726;3.298;2023-04-28T12:52:17;1.00;;;1.00;;
61702;SDS011;47622;47.726;3.298;2023-04-28T12:54:46;1.88;;;1.08;;
61702;SDS011;47622;47.726;3.298;2023-04-28T12:57:13;2.38;;;1.50;;
61702;SDS011;47622;47.726;3.298;2023-04-28T12:59:39;1.30;;;1.20;;
61702;SDS011;47622;47.726;3.298;2023-04-28T13:02:05;1.05;;;1.00;;
61702;SDS011;47622;47.726;3.298;2023-04-28T13:04:32;1.20;;;1.08;;
61702;SDS011;47622;47.726;3.298;2023-04-28T13:06:57;1.45;;;1.20;;
61702;SDS011;47622;47.726;3.298;2023-04-28T13:09:24;2.50;;;1.05;;
61702;SDS011;47622;47.726;3.298;2023-04-28T13:11:50;0.90;;;0.90;;
61702;SDS011;47622;47.726;3.298;2023-04-28T13:14:18;3.05;;;1.30;;
61702;SDS011;47622;47.726;3.298;2023-04-28T13:16:44;2.72;;;1.20;;
61702;SDS011;47622;47.726;3.298;2023-04-28T13:19:10;3.28;;;1.30;;
61702;SDS011;47622;47.726;3.298;2023-04-28T13:21:38;2.13;;;1.13;;
61702;SDS011;47622;47.726;3.298;2023-04-28T13:24:06;1.42;;;1.20;;
61702;SDS011;47622;47.726;3.298;2023-04-28T13:26:32;1.73;;;1.30;;
61702;SDS011;47622;47.726;3.298;2023-04-28T13:28:58;1.30;;;1.20;;
61702;SDS011;47622;47.726;3.298;2023-04-28T13:31:26;1.73;;;1.10;;
61702;SDS011;47622;47.726;3.298;2023-04-28T13:33:53;1.75;;;1.35;;
61702;SDS011;47622;47.726;3.298;2023-04-28T13:36:19;2.17;;;1.20;;
61702;SDS011;47622;47.726;3.298;2023-04-28T13:38:44;1.20;;;1.10;;
61702;SDS011;47622;47.726;3.298;2023-04-28T13:41:13;1.60;;;1.20;;
61702;SDS011;47622;47.726;3.298;2023-04-28T13:43:42;1.65;;;1.10;;
61702;SDS011;47622;47.726;3.298;2023-04-28T13:46:08;1.80;;;0.95;;
61702;SDS011;47622;47.726;3.298;2023-04-28T13:48:35;1.40;;;1.20;;
61702;SDS011;47622;47.726;3.298;2023-04-28T13:51:01;2.05;;;1.73;;
61702;SDS011;47622;47.726;3.298;2023-04-28T13:53:28;1.55;;;1.45;;
61702;SDS011;47622;47.726;3.298;2023-04-28T13:55:54;2.75;;;1.88;;
61702;SDS011;47622;47.726;3.298;2023-04-28T13:58:28;2.40;;;1.75;;
61702;SDS011;47622;47.726;3.298;2023-04-28T14:00:54;4.18;;;1.80;;
61702;SDS011;47622;47.726;3.298;2023-04-28T14:03:21;3.42;;;1.52;;
61702;SDS011;47622;47.726;3.298;2023-04-28T14:05:52;1.70;;;1.60;;
61702;SDS011;47622;47.726;3.298;2023-04-28T14:08:19;1.60;;;1.50;;
61702;SDS011;47622;47.726;3.298;2023-04-28T14:10:45;5.20;;;1.75;;
61702;SDS011;47622;47.726;3.298;2023-04-28T14:13:12;2.58;;;1.80;;
61702;SDS011;47622;47.726;3.298;2023-04-28T14:15:37;1.95;;;1.70;;
61702;SDS011;47622;47.726;3.298;2023-04-28T14:18:04;3.55;;;1.52;;
61702;SDS011;47622;47.726;3.298;2023-04-28T14:20:30;1.95;;;1.73;;
61702;SDS011;47622;47.726;3.298;2023-04-28T14:22:56;2.08;;;1.65;;
61702;SDS011;47622;47.726;3.298;2023-04-28T14:25:22;2.25;;;1.70;;
61702;SDS011;47622;47.726;3.298;2023-04-28T14:27:48;5.40;;;2.10;;
61702;SDS011;47622;47.726;3.298;2023-04-28T14:30:14;3.90;;;2.00;;
61702;SDS011;47622;47.726;3.298;2023-04-28T14:32:42;2.38;;;1.75;;
61702;SDS011;47622;47.726;3.298;2023-04-28T14:35:08;3.47;;;2.00;;
61702;SDS011;47622;47.726;3.298;2023-04-28T14:37:35;2.88;;;1.70;;
61702;SDS011;47622;47.726;3.298;2023-04-28T14:40:00;3.42;;;2.30;;
61702;SDS011;47622;47.726;3.298;2023-04-28T14:42:28;2.28;;;1.85;;
61702;SDS011;47622;47.726;3.298;2023-04-28T14:44:55;5.97;;;1.90;;
61702;SDS011;47622;47.726;3.298;2023-04-28T14:47:22;2.70;;;1.90;;
61702;SDS011;47622;47.726;3.298;2023-04-28T14:49:48;2.05;;;1.50;;
61702;SDS011;47622;47.726;3.298;2023-04-28T14:52:17;2.10;;;1.52;;
61702;SDS011;47622;47.726;3.298;2023-04-28T14:54:43;2.40;;;1.92;;
61702;SDS011;47622;47.726;3.298;2023-04-28T14:57:10;3.15;;;1.90;;
61702;SDS011;47622;47.726;3.298;2023-04-28T14:59:35;1.98;;;1.80;;
61702;SDS011;47622;47.726;3.298;2023-04-28T15:02:01;3.50;;;1.80;;
61702;SDS011;47622;47.726;3.298;2023-04-28T15:04:27;2.80;;;1.73;;
61702;SDS011;47622;47.726;3.298;2023-04-28T15:06:55;4.05;;;1.90;;
61702;SDS011;47622;47.726;3.298;2023-04-28T15:09:21;2.13;;;1.70;;
61702;SDS011;47622;47.726;3.298;2023-04-28T15:11:47;3.20;;;2.47;;
61702;SDS011;47622;47.726;3.298;2023-04-28T15:14:15;2.13;;;1.80;;
61702;SDS011;47622;47.726;3.298;2023-04-28T15:16:42;1.77;;;1.60;;
61702;SDS011;47622;47.726;3.298;2023-04-28T15:19:08;2.65;;;1.70;;
61702;SDS011;47622;47.726;3.298;2023-04-28T15:21:34;1.60;;;1.50;;
61702;SDS011;47622;47.726;3.298;2023-04-28T15:24:00;2.15;;;1.85;;